sensor_id;sensor_type;location;lat;lon;timestamp;pressure;altitude;pressure_sealevel;temperature;humidity
64402;BME280;50724;42.376;23.768;2023-01-31T00:01:39;92607.84;;;-0.50;82.67
64402;BME280;50724;42.376;23.768;2023-01-31T00:04:42;92609.69;;;-0.63;83.35
64402;BME280;50724;42.376;23.768;2023-01-31T00:07:42;92609.16;;;-0.79;84.81
64402;BME280;50724;42.376;23.768;2023-01-31T00:10:43;92608.03;;;-0.75;84.74
64402;BME280;50724;42.376;23.768;2023-01-31T00:13:44;92609.06;;;-0.78;85.77
64402;BME280;50724;42.376;23.768;2023-01-31T00:16:44;92612.63;;;-0.91;87.65
64402;BME280;50724;42.376;23.768;2023-01-31T00:19:45;92612.38;;;-0.99;89.46
64402;BME280;50724;42.376;23.768;2023-01-31T00:22:45;92599.06;;;-1.04;91.11
64402;BME280;50724;42.376;23.768;2023-01-31T00:25:46;92612.44;;;-1.12;92.45
64402;BME280;50724;42.376;23.768;2023-01-31T00:28:48;92608.25;;;-1.13;93.04
64402;BME280;50724;42.376;23.768;2023-01-31T00:31:50;92609.03;;;-1.12;92.96
64402;BME280;50724;42.376;23.768;2023-01-31T00:34:54;92600.59;;;-1.02;91.86
64402;BME280;50724;42.376;23.768;2023-01-31T00:37:54;92600.94;;;-0.95;92.01
64402;BME280;50724;42.376;23.768;2023-01-31T00:40:54;92595.13;;;-0.97;92.28
64402;BME280;50724;42.376;23.768;2023-01-31T00:43:55;92589.06;;;-0.96;92.00
64402;BME280;50724;42.376;23.768;2023-01-31T00:46:56;92573.06;;;-1.00;91.77
64402;BME280;50724;42.376;23.768;2023-01-31T00:49:57;92572.03;;;-0.97;91.77
64402;BME280;50724;42.376;23.768;2023-01-31T00:52:57;92567.00;;;-0.99;91.28
64402;BME280;50724;42.376;23.768;2023-01-31T00:56:04;92567.59;;;-0.95;91.01
64402;BME280;50724;42.376;23.768;2023-01-31T00:59:05;92566.56;;;-0.93;91.02
64402;BME280;50724;42.376;23.768;2023-01-31T01:02:07;92562.59;;;-0.86;90.27
64402;BME280;50724;42.376;23.768;2023-01-31T01:05:11;92561.72;;;-0.74;89.31
64402;BME280;50724;42.376;23.768;2023-01-31T01:08:11;92564.41;;;-0.75;88.98
64402;BME280;50724;42.376;23.768;2023-01-31T01:11:32;92558.44;;;-0.76;89.00
64402;BME280;50724;42.376;23.768;2023-01-31T01:14:33;92569.19;;;-0.71;87.97
64402;BME280;50724;42.376;23.768;2023-01-31T01:17:33;92564.06;;;-0.71;87.73
64402;BME280;50724;42.376;23.768;2023-01-31T01:20:34;92555.41;;;-0.70;87.27
64402;BME280;50724;42.376;23.768;2023-01-31T01:23:36;92556.59;;;-0.62;86.48
64402;BME280;50724;42.376;23.768;2023-01-31T01:26:36;92552.84;;;-0.58;86.47
64402;BME280;50724;42.376;23.768;2023-01-31T01:29:38;92545.28;;;-0.60;85.95
64402;BME280;50724;42.376;23.768;2023-01-31T01:32:38;92550.19;;;-0.57;85.29
64402;BME280;50724;42.376;23.768;2023-01-31T01:35:39;92535.69;;;-0.58;85.26
64402;BME280;50724;42.376;23.768;2023-01-31T01:38:39;92534.09;;;-0.48;84.69
64402;BME280;50724;42.376;23.768;2023-01-31T01:41:40;92531.50;;;-0.48;84.04
64402;BME280;50724;42.376;23.768;2023-01-31T01:44:44;92530.81;;;-0.50;83.91
64402;BME280;50724;42.376;23.768;2023-01-31T01:47:48;92530.47;;;-0.34;82.09
64402;BME280;50724;42.376;23.768;2023-01-31T01:50:49;92528.50;;;-0.31;81.21
64402;BME280;50724;42.376;23.768;2023-01-31T01:53:53;92535.63;;;-0.12;79.65
64402;BME280;50724;42.376;23.768;2023-01-31T01:57:15;92531.50;;;0.08;78.38
64402;BME280;50724;42.376;23.768;2023-01-31T02:00:27;92541.78;;;0.19;77.46
64402;BME280;50724;42.376;23.768;2023-01-31T02:03:28;92535.09;;;0.27;75.85
64402;BME280;50724;42.376;23.768;2023-01-31T02:06:28;92539.28;;;0.28;74.62
64402;BME280;50724;42.376;23.768;2023-01-31T02:09:52;92549.94;;;0.35;71.48
64402;BME280;50724;42.376;23.768;2023-01-31T02:12:55;92550.84;;;0.34;70.96
64402;BME280;50724;42.376;23.768;2023-01-31T02:15:56;92545.13;;;0.41;60.83
64402;BME280;50724;42.376;23.768;2023-01-31T02:18:57;92550.16;;;0.32;61.22
64402;BME280;50724;42.376;23.768;2023-01-31T02:22:15;92554.59;;;0.30;60.60
64402;BME280;50724;42.376;23.768;2023-01-31T02:39:00;92574.03;;;0.00;52.36
64402;BME280;50724;42.376;23.768;2023-01-31T02:42:23;92567.72;;;-0.07;50.94
64402;BME280;50724;42.376;23.768;2023-01-31T02:49:00;92577.88;;;-0.16;51.69
64402;BME280;50724;42.376;23.768;2023-01-31T02:55:36;92582.66;;;-0.23;53.21
64402;BME280;50724;42.376;23.768;2023-01-31T02:59:06;92585.00;;;-0.31;54.60
64402;BME280;50724;42.376;23.768;2023-01-31T03:02:08;92575.19;;;-0.26;55.65
64402;BME280;50724;42.376;23.768;2023-01-31T03:05:13;92586.06;;;-0.33;57.30
64402;BME280;50724;42.376;23.768;2023-01-31T03:08:14;92598.41;;;-0.38;58.54
64402;BME280;50724;42.376;23.768;2023-01-31T03:11:15;92606.34;;;-0.41;58.77
64402;BME280;50724;42.376;23.768;2023-01-31T03:14:32;92619.06;;;-0.51;58.49
64402;BME280;50724;42.376;23.768;2023-01-31T03:18:07;92609.47;;;-0.60;59.37
64402;BME280;50724;42.376;23.768;2023-01-31T03:21:18;92617.38;;;-0.63;59.10
64402;BME280;50724;42.376;23.768;2023-01-31T03:24:21;92616.34;;;-0.60;57.60
64402;BME280;50724;42.376;23.768;2023-01-31T03:27:26;92610.72;;;-0.65;57.99
64402;BME280;50724;42.376;23.768;2023-01-31T03:30:47;92616.81;;;-0.66;57.50
64402;BME280;50724;42.376;23.768;2023-01-31T03:33:59;92632.69;;;-0.61;59.05
64402;BME280;50724;42.376;23.768;2023-01-31T03:37:10;92639.53;;;-0.73;58.57
64402;BME280;50724;42.376;23.768;2023-01-31T03:40:19;92629.03;;;-0.70;58.39
64402;BME280;50724;42.376;23.768;2023-01-31T03:43:24;92637.34;;;-0.66;57.24
64402;BME280;50724;42.376;23.768;2023-01-31T03:46:30;92633.94;;;-0.67;57.28
64402;BME280;50724;42.376;23.768;2023-01-31T03:49:33;92647.00;;;-0.70;58.04
64402;BME280;50724;42.376;23.768;2023-01-31T03:52:41;92641.16;;;-0.72;58.78
64402;BME280;50724;42.376;23.768;2023-01-31T03:56:04;92644.28;;;-0.80;60.26
64402;BME280;50724;42.376;23.768;2023-01-31T03:59:16;92652.22;;;-0.83;60.58
64402;BME280;50724;42.376;23.768;2023-01-31T04:02:20;92654.88;;;-0.84;62.76
64402;BME280;50724;42.376;23.768;2023-01-31T04:05:23;92665.38;;;-0.87;64.06
64402;BME280;50724;42.376;23.768;2023-01-31T04:08:30;92674.94;;;-0.89;64.65
64402;BME280;50724;42.376;23.768;2023-01-31T04:11:38;92668.72;;;-0.98;66.20
64402;BME280;50724;42.376;23.768;2023-01-31T04:14:39;92688.53;;;-1.00;67.53
64402;BME280;50724;42.376;23.768;2023-01-31T04:17:40;92689.78;;;-1.05;68.72
64402;BME280;50724;42.376;23.768;2023-01-31T04:20:40;92703.00;;;-0.99;68.70
64402;BME280;50724;42.376;23.768;2023-01-31T04:23:41;92697.38;;;-1.04;69.78
64402;BME280;50724;42.376;23.768;2023-01-31T04:26:41;92692.47;;;-1.07;70.90
64402;BME280;50724;42.376;23.768;2023-01-31T04:29:42;92683.03;;;-1.06;71.72
64402;BME280;50724;42.376;23.768;2023-01-31T04:32:42;92697.00;;;-1.10;72.52
64402;BME280;50724;42.376;23.768;2023-01-31T04:35:43;92694.84;;;-1.16;73.71
64402;BME280;50724;42.376;23.768;2023-01-31T04:38:43;92688.41;;;-1.22;74.83
64402;BME280;50724;42.376;23.768;2023-01-31T04:41:44;92681.84;;;-1.26;76.14
64402;BME280;50724;42.376;23.768;2023-01-31T04:44:44;92695.19;;;-1.33;78.07
64402;BME280;50724;42.376;23.768;2023-01-31T04:47:44;92693.78;;;-1.38;79.31
64402;BME280;50724;42.376;23.768;2023-01-31T04:50:45;92697.38;;;-1.40;80.47
64402;BME280;50724;42.376;23.768;2023-01-31T04:53:45;92694.81;;;-1.40;81.03
64402;BME280;50724;42.376;23.768;2023-01-31T04:56:45;92693.19;;;-1.41;81.71
64402;BME280;50724;42.376;23.768;2023-01-31T04:59:46;92686.53;;;-1.44;81.97
64402;BME280;50724;42.376;23.768;2023-01-31T05:02:46;92692.78;;;-1.48;82.17
64402;BME280;50724;42.376;23.768;2023-01-31T05:05:48;92700.19;;;-1.43;81.60
64402;BME280;50724;42.376;23.768;2023-01-31T05:08:48;92697.81;;;-1.46;81.71
64402;BME280;50724;42.376;23.768;2023-01-31T05:11:48;92706.75;;;-1.52;82.39
64402;BME280;50724;42.376;23.768;2023-01-31T05:14:49;92714.63;;;-1.55;82.16
64402;BME280;50724;42.376;23.768;2023-01-31T05:17:51;92704.59;;;-1.58;81.88
64402;BME280;50724;42.376;23.768;2023-01-31T05:20:52;92708.09;;;-1.59;81.23
64402;BME280;50724;42.376;23.768;2023-01-31T05:23:52;92697.13;;;-1.61;81.26
64402;BME280;50724;42.376;23.768;2023-01-31T05:26:53;92696.41;;;-1.63;81.41
64402;BME280;50724;42.376;23.768;2023-01-31T05:29:57;92695.06;;;-1.56;81.20
64402;BME280;50724;42.376;23.768;2023-01-31T05:32:59;92696.91;;;-1.58;81.58
64402;BME280;50724;42.376;23.768;2023-01-31T05:36:00;92686.03;;;-1.61;82.33
64402;BME280;50724;42.376;23.768;2023-01-31T05:39:01;92695.47;;;-1.62;82.89
64402;BME280;50724;42.376;23.768;2023-01-31T05:42:01;92698.44;;;-1.55;82.72
64402;BME280;50724;42.376;23.768;2023-01-31T05:45:03;92697.31;;;-1.64;83.73
64402;BME280;50724;42.376;23.768;2023-01-31T05:48:03;92703.78;;;-1.58;83.66
64402;BME280;50724;42.376;23.768;2023-01-31T05:51:04;92712.28;;;-1.58;84.13
64402;BME280;50724;42.376;23.768;2023-01-31T05:54:05;92711.03;;;-1.52;83.99
64402;BME280;50724;42.376;23.768;2023-01-31T05:57:05;92715.97;;;-1.62;84.05
64402;BME280;50724;42.376;23.768;2023-01-31T06:00:10;92717.44;;;-1.58;83.45
64402;BME280;50724;42.376;23.768;2023-01-31T06:03:10;92735.56;;;-1.61;83.66
64402;BME280;50724;42.376;23.768;2023-01-31T06:06:11;92735.38;;;-1.58;83.84
64402;BME280;50724;42.376;23.768;2023-01-31T06:09:12;92735.75;;;-1.51;83.25
64402;BME280;50724;42.376;23.768;2023-01-31T06:12:12;92746.84;;;-1.51;83.84
64402;BME280;50724;42.376;23.768;2023-01-31T06:15:14;92742.53;;;-1.50;83.79
64402;BME280;50724;42.376;23.768;2023-01-31T06:18:14;92748.97;;;-1.45;83.03
64402;BME280;50724;42.376;23.768;2023-01-31T06:21:15;92756.88;;;-1.35;82.74
64402;BME280;50724;42.376;23.768;2023-01-31T06:24:15;92757.56;;;-1.33;82.59
64402;BME280;50724;42.376;23.768;2023-01-31T06:27:16;92768.34;;;-1.28;82.66
64402;BME280;50724;42.376;23.768;2023-01-31T06:30:16;92760.13;;;-1.20;82.20
64402;BME280;50724;42.376;23.768;2023-01-31T06:33:17;92757.38;;;-1.17;81.39
64402;BME280;50724;42.376;23.768;2023-01-31T06:36:17;92755.28;;;-1.12;81.37
64402;BME280;50724;42.376;23.768;2023-01-31T06:39:17;92756.59;;;-1.07;81.50
64402;BME280;50724;42.376;23.768;2023-01-31T06:42:18;92755.03;;;-0.97;81.18
64402;BME280;50724;42.376;23.768;2023-01-31T06:45:18;92752.75;;;-0.89;80.32
64402;BME280;50724;42.376;23.768;2023-01-31T06:48:19;92751.72;;;-0.86;79.33
64402;BME280;50724;42.376;23.768;2023-01-31T06:51:20;92758.06;;;-0.79;78.85
64402;BME280;50724;42.376;23.768;2023-01-31T06:54:20;92761.94;;;-0.74;78.43
64402;BME280;50724;42.376;23.768;2023-01-31T06:57:20;92746.75;;;-0.77;78.40
64402;BME280;50724;42.376;23.768;2023-01-31T07:00:21;92754.13;;;-0.72;78.14
64402;BME280;50724;42.376;23.768;2023-01-31T07:03:23;92765.84;;;-0.68;78.92
64402;BME280;50724;42.376;23.768;2023-01-31T07:06:24;92763.03;;;-0.65;78.06
64402;BME280;50724;42.376;23.768;2023-01-31T07:09:25;92764.22;;;-0.58;78.43
64402;BME280;50724;42.376;23.768;2023-01-31T07:12:26;92766.91;;;-0.59;79.00
64402;BME280;50724;42.376;23.768;2023-01-31T07:15:27;92764.59;;;-0.51;77.55
64402;BME280;50724;42.376;23.768;2023-01-31T07:18:27;92778.97;;;-0.49;77.66
64402;BME280;50724;42.376;23.768;2023-01-31T07:21:28;92768.16;;;-0.41;76.65
64402;BME280;50724;42.376;23.768;2023-01-31T07:24:29;92769.63;;;-0.26;76.92
64402;BME280;50724;42.376;23.768;2023-01-31T07:27:29;92760.84;;;0.00;75.77
64402;BME280;50724;42.376;23.768;2023-01-31T07:30:30;92762.06;;;0.18;74.46
64402;BME280;50724;42.376;23.768;2023-01-31T07:33:40;92761.84;;;0.32;73.89
64402;BME280;50724;42.376;23.768;2023-01-31T07:36:49;92764.22;;;0.46;73.07
64402;BME280;50724;42.376;23.768;2023-01-31T07:39:50;92755.91;;;0.54;72.64
64402;BME280;50724;42.376;23.768;2023-01-31T07:42:50;92754.16;;;0.54;72.64
64402;BME280;50724;42.376;23.768;2023-01-31T07:45:56;92759.75;;;0.93;72.04
64402;BME280;50724;42.376;23.768;2023-01-31T07:48:57;92753.59;;;0.84;71.26
64402;BME280;50724;42.376;23.768;2023-01-31T07:51:57;92747.25;;;0.88;71.09
64402;BME280;50724;42.376;23.768;2023-01-31T07:54:57;92737.88;;;0.98;72.26
64402;BME280;50724;42.376;23.768;2023-01-31T07:57:58;92743.56;;;1.13;70.99
64402;BME280;50724;42.376;23.768;2023-01-31T08:00:58;92730.38;;;1.06;71.36
64402;BME280;50724;42.376;23.768;2023-01-31T08:04:17;92750.63;;;0.78;72.20
64402;BME280;50724;42.376;23.768;2023-01-31T08:07:17;92753.94;;;0.80;72.59
64402;BME280;50724;42.376;23.768;2023-01-31T08:10:18;92760.25;;;0.87;72.36
64402;BME280;50724;42.376;23.768;2023-01-31T08:13:18;92750.75;;;0.87;72.41
64402;BME280;50724;42.376;23.768;2023-01-31T08:16:19;92748.28;;;0.97;72.27
64402;BME280;50724;42.376;23.768;2023-01-31T08:19:20;92762.91;;;1.18;72.38
64402;BME280;50724;42.376;23.768;2023-01-31T08:22:21;92763.78;;;1.39;71.25
64402;BME280;50724;42.376;23.768;2023-01-31T08:25:22;92764.31;;;1.11;72.03
64402;BME280;50724;42.376;23.768;2023-01-31T08:28:22;92760.91;;;1.11;73.03
64402;BME280;50724;42.376;23.768;2023-01-31T08:31:24;92762.41;;;1.35;71.84
64402;BME280;50724;42.376;23.768;2023-01-31T08:34:24;92740.78;;;1.59;70.51
64402;BME280;50724;42.376;23.768;2023-01-31T08:37:27;92747.25;;;1.53;70.36
64402;BME280;50724;42.376;23.768;2023-01-31T08:40:27;92740.94;;;1.46;71.37
64402;BME280;50724;42.376;23.768;2023-01-31T08:43:27;92755.19;;;1.50;71.86
64402;BME280;50724;42.376;23.768;2023-01-31T08:46:33;92764.28;;;1.33;72.17
64402;BME280;50724;42.376;23.768;2023-01-31T08:49:35;92758.22;;;1.12;72.70
64402;BME280;50724;42.376;23.768;2023-01-31T08:52:36;92754.16;;;0.88;73.56
64402;BME280;50724;42.376;23.768;2023-01-31T08:55:36;92748.31;;;0.86;73.74
64402;BME280;50724;42.376;23.768;2023-01-31T08:58:38;92763.75;;;1.08;74.39
64402;BME280;50724;42.376;23.768;2023-01-31T09:01:39;92764.78;;;1.16;75.01
64402;BME280;50724;42.376;23.768;2023-01-31T09:04:41;92754.16;;;0.88;73.63
64402;BME280;50724;42.376;23.768;2023-01-31T09:07:41;92757.28;;;1.13;73.48
64402;BME280;50724;42.376;23.768;2023-01-31T09:10:42;92746.94;;;1.24;73.10
64402;BME280;50724;42.376;23.768;2023-01-31T09:13:42;92747.09;;;1.23;73.06
64402;BME280;50724;42.376;23.768;2023-01-31T09:16:43;92739.41;;;1.01;72.83
64402;BME280;50724;42.376;23.768;2023-01-31T09:19:45;92745.00;;;1.06;74.30
64402;BME280;50724;42.376;23.768;2023-01-31T09:22:47;92750.03;;;1.18;73.90
64402;BME280;50724;42.376;23.768;2023-01-31T09:25:52;92744.59;;;1.32;73.06
64402;BME280;50724;42.376;23.768;2023-01-31T09:28:53;92740.41;;;1.20;72.49
64402;BME280;50724;42.376;23.768;2023-01-31T09:31:55;92739.41;;;1.44;73.33
64402;BME280;50724;42.376;23.768;2023-01-31T09:34:55;92731.03;;;1.30;72.76
64402;BME280;50724;42.376;23.768;2023-01-31T09:37:57;92745.16;;;1.47;72.42
64402;BME280;50724;42.376;23.768;2023-01-31T09:40:59;92740.88;;;1.25;72.64
64402;BME280;50724;42.376;23.768;2023-01-31T09:44:57;92751.72;;;1.40;72.87
64402;BME280;50724;42.376;23.768;2023-01-31T09:47:36;92736.41;;;1.27;74.22
64402;BME280;50724;42.376;23.768;2023-01-31T09:50:44;92725.06;;;1.30;73.04
64402;BME280;50724;42.376;23.768;2023-01-31T09:53:46;92740.66;;;1.28;72.25
64402;BME280;50724;42.376;23.768;2023-01-31T10:00:31;92731.69;;;1.44;72.03
64402;BME280;50724;42.376;23.768;2023-01-31T10:06:57;92730.09;;;1.63;70.16
64402;BME280;50724;42.376;23.768;2023-01-31T10:13:25;92728.31;;;1.95;69.17
64402;BME280;50724;42.376;23.768;2023-01-31T10:16:42;92712.22;;;1.82;68.89
64402;BME280;50724;42.376;23.768;2023-01-31T10:23:02;92717.38;;;1.82;69.71
64402;BME280;50724;42.376;23.768;2023-01-31T10:32:33;92705.91;;;1.55;69.93
64402;BME280;50724;42.376;23.768;2023-01-31T10:35:40;92715.84;;;1.59;68.12
64402;BME280;50724;42.376;23.768;2023-01-31T10:38:56;92695.16;;;1.70;67.82
64402;BME280;50724;42.376;23.768;2023-01-31T10:42:23;92711.00;;;1.66;68.48
64402;BME280;50724;42.376;23.768;2023-01-31T10:45:27;92707.91;;;1.72;68.99
64402;BME280;50724;42.376;23.768;2023-01-31T10:48:32;92705.09;;;1.43;69.60
64402;BME280;50724;42.376;23.768;2023-01-31T10:55:09;92699.19;;;1.84;68.12
64402;BME280;50724;42.376;23.768;2023-01-31T10:58:20;92692.78;;;1.78;67.75
64402;BME280;50724;42.376;23.768;2023-01-31T11:01:22;92696.09;;;1.69;68.45
64402;BME280;50724;42.376;23.768;2023-01-31T11:04:43;92682.34;;;1.59;67.43
64402;BME280;50724;42.376;23.768;2023-01-31T11:07:43;92671.44;;;1.56;68.09
64402;BME280;50724;42.376;23.768;2023-01-31T11:10:54;92701.97;;;1.39;68.97
64402;BME280;50724;42.376;23.768;2023-01-31T11:14:04;92692.03;;;1.35;69.77
64402;BME280;50724;42.376;23.768;2023-01-31T11:17:20;92662.69;;;1.26;70.20
64402;BME280;50724;42.376;23.768;2023-01-31T11:20:29;92692.44;;;1.19;69.47
64402;BME280;50724;42.376;23.768;2023-01-31T11:23:33;92684.81;;;1.18;69.52
64402;BME280;50724;42.376;23.768;2023-01-31T11:26:37;92682.94;;;1.20;69.94
64402;BME280;50724;42.376;23.768;2023-01-31T11:29:47;92702.09;;;1.27;71.88
64402;BME280;50724;42.376;23.768;2023-01-31T11:32:49;92702.19;;;1.36;70.15
64402;BME280;50724;42.376;23.768;2023-01-31T11:35:51;92689.16;;;1.49;69.38
64402;BME280;50724;42.376;23.768;2023-01-31T11:38:52;92702.53;;;1.43;69.81
64402;BME280;50724;42.376;23.768;2023-01-31T11:41:54;92693.13;;;1.53;69.33
64402;BME280;50724;42.376;23.768;2023-01-31T11:44:58;92682.66;;;1.66;68.57
64402;BME280;50724;42.376;23.768;2023-01-31T11:48:25;92692.44;;;1.51;69.12
64402;BME280;50724;42.376;23.768;2023-01-31T11:51:28;92693.25;;;1.52;69.00
64402;BME280;50724;42.376;23.768;2023-01-31T11:54:32;92708.88;;;1.39;69.85
64402;BME280;50724;42.376;23.768;2023-01-31T11:57:34;92698.47;;;1.41;70.39
64402;BME280;50724;42.376;23.768;2023-01-31T12:00:36;92644.94;;;1.12;71.20
64402;BME280;50724;42.376;23.768;2023-01-31T12:03:37;92676.00;;;0.89;72.43
64402;BME280;50724;42.376;23.768;2023-01-31T12:06:39;92675.66;;;0.93;73.32
64402;BME280;50724;42.376;23.768;2023-01-31T12:09:42;92683.97;;;0.75;73.81
64402;BME280;50724;42.376;23.768;2023-01-31T12:12:43;92679.63;;;0.75;74.84
64402;BME280;50724;42.376;23.768;2023-01-31T12:15:57;92679.88;;;0.83;75.74
64402;BME280;50724;42.376;23.768;2023-01-31T12:22:20;92674.59;;;0.96;75.85
64402;BME280;50724;42.376;23.768;2023-01-31T12:25:39;92679.56;;;1.08;76.01
64402;BME280;50724;42.376;23.768;2023-01-31T12:28:50;92675.31;;;1.50;74.98
64402;BME280;50724;42.376;23.768;2023-01-31T12:41:36;92702.97;;;1.48;74.00
64402;BME280;50724;42.376;23.768;2023-01-31T12:48:24;92701.13;;;1.39;74.77
64402;BME280;50724;42.376;23.768;2023-01-31T12:58:29;92720.81;;;0.86;80.89
64402;BME280;50724;42.376;23.768;2023-01-31T13:01:47;92714.81;;;1.08;80.57
64402;BME280;50724;42.376;23.768;2023-01-31T13:04:56;92714.44;;;1.23;78.05
64402;BME280;50724;42.376;23.768;2023-01-31T13:08:06;92715.63;;;1.19;78.22
64402;BME280;50724;42.376;23.768;2023-01-31T13:11:24;92720.03;;;1.28;78.10
64402;BME280;50724;42.376;23.768;2023-01-31T13:14:31;92733.28;;;1.24;76.17
64402;BME280;50724;42.376;23.768;2023-01-31T13:17:37;92733.00;;;1.27;75.84
64402;BME280;50724;42.376;23.768;2023-01-31T13:20:53;92731.50;;;1.35;75.88
64402;BME280;50724;42.376;23.768;2023-01-31T13:23:57;92739.31;;;1.45;76.56
64402;BME280;50724;42.376;23.768;2023-01-31T13:27:09;92745.19;;;1.25;76.67
64402;BME280;50724;42.376;23.768;2023-01-31T13:30:31;92740.31;;;1.11;77.81
64402;BME280;50724;42.376;23.768;2023-01-31T13:33:46;92747.72;;;0.93;78.41
64402;BME280;50724;42.376;23.768;2023-01-31T13:37:00;92753.09;;;0.79;78.11
64402;BME280;50724;42.376;23.768;2023-01-31T13:40:13;92752.88;;;0.93;78.36
64402;BME280;50724;42.376;23.768;2023-01-31T13:43:17;92763.13;;;1.26;76.65
64402;BME280;50724;42.376;23.768;2023-01-31T13:46:22;92751.31;;;1.13;76.20
64402;BME280;50724;42.376;23.768;2023-01-31T13:49:34;92753.28;;;1.20;76.68
64402;BME280;50724;42.376;23.768;2023-01-31T13:52:46;92758.34;;;1.00;77.21
64402;BME280;50724;42.376;23.768;2023-01-31T13:55:49;92739.19;;;0.82;77.16
64402;BME280;50724;42.376;23.768;2023-01-31T13:58:51;92749.34;;;0.94;77.52
64402;BME280;50724;42.376;23.768;2023-01-31T14:01:53;92745.47;;;1.00;77.02
64402;BME280;50724;42.376;23.768;2023-01-31T14:05:03;92740.22;;;1.01;75.11
64402;BME280;50724;42.376;23.768;2023-01-31T14:20:50;92745.59;;;0.87;77.11
64402;BME280;50724;42.376;23.768;2023-01-31T14:23:50;92745.38;;;0.46;78.86
64402;BME280;50724;42.376;23.768;2023-01-31T14:26:52;92743.38;;;0.38;79.67
64402;BME280;50724;42.376;23.768;2023-01-31T14:36:41;92758.41;;;0.10;81.47
64402;BME280;50724;42.376;23.768;2023-01-31T14:53:00;92772.72;;;-0.10;83.55
64402;BME280;50724;42.376;23.768;2023-01-31T14:59:43;92787.28;;;-0.22;84.74
64402;BME280;50724;42.376;23.768;2023-01-31T15:06:03;92789.84;;;-0.22;84.24
64402;BME280;50724;42.376;23.768;2023-01-31T15:09:26;92794.63;;;-0.28;84.44
64402;BME280;50724;42.376;23.768;2023-01-31T15:12:55;92795.22;;;-0.25;83.91
64402;BME280;50724;42.376;23.768;2023-01-31T15:16:18;92805.00;;;-0.30;84.07
64402;BME280;50724;42.376;23.768;2023-01-31T15:19:20;92808.19;;;-0.26;83.24
64402;BME280;50724;42.376;23.768;2023-01-31T15:22:24;92820.69;;;-0.22;83.29
64402;BME280;50724;42.376;23.768;2023-01-31T15:25:31;92796.75;;;-0.22;83.27
64402;BME280;50724;42.376;23.768;2023-01-31T15:28:37;92811.81;;;-0.18;82.63
64402;BME280;50724;42.376;23.768;2023-01-31T15:31:42;92809.97;;;-0.16;81.71
64402;BME280;50724;42.376;23.768;2023-01-31T15:34:51;92823.97;;;-0.20;82.38
64402;BME280;50724;42.376;23.768;2023-01-31T15:38:04;92818.69;;;-0.18;81.89
64402;BME280;50724;42.376;23.768;2023-01-31T15:41:25;92834.13;;;-0.18;82.33
64402;BME280;50724;42.376;23.768;2023-01-31T15:44:26;92829.53;;;-0.26;82.82
64402;BME280;50724;42.376;23.768;2023-01-31T15:47:27;92839.59;;;-0.23;82.33
64402;BME280;50724;42.376;23.768;2023-01-31T15:50:31;92835.88;;;-0.19;81.04
64402;BME280;50724;42.376;23.768;2023-01-31T15:53:31;92843.56;;;-0.19;80.79
64402;BME280;50724;42.376;23.768;2023-01-31T15:56:38;92851.06;;;-0.16;80.92
64402;BME280;50724;42.376;23.768;2023-01-31T15:59:42;92863.91;;;-0.16;81.60
64402;BME280;50724;42.376;23.768;2023-01-31T16:02:45;92863.09;;;-0.16;81.50
64402;BME280;50724;42.376;23.768;2023-01-31T16:05:51;92875.34;;;-0.20;81.90
64402;BME280;50724;42.376;23.768;2023-01-31T16:08:57;92870.09;;;-0.18;81.82
64402;BME280;50724;42.376;23.768;2023-01-31T16:11:59;92874.41;;;-0.19;81.85
64402;BME280;50724;42.376;23.768;2023-01-31T16:15:04;92875.47;;;-0.21;82.09
64402;BME280;50724;42.376;23.768;2023-01-31T16:18:09;92871.25;;;-0.22;82.88
64402;BME280;50724;42.376;23.768;2023-01-31T16:24:25;92876.34;;;-0.33;83.85
64402;BME280;50724;42.376;23.768;2023-01-31T16:27:32;92880.66;;;-0.34;84.08
64402;BME280;50724;42.376;23.768;2023-01-31T16:30:40;92877.69;;;-0.40;84.95
64402;BME280;50724;42.376;23.768;2023-01-31T16:33:48;92877.47;;;-0.37;84.25
64402;BME280;50724;42.376;23.768;2023-01-31T16:39:49;92888.75;;;-0.40;84.03
64402;BME280;50724;42.376;23.768;2023-01-31T16:43:07;92893.91;;;-0.40;84.35
64402;BME280;50724;42.376;23.768;2023-01-31T16:46:34;92896.78;;;-0.44;84.54
64402;BME280;50724;42.376;23.768;2023-01-31T16:49:36;92909.22;;;-0.38;84.42
64402;BME280;50724;42.376;23.768;2023-01-31T16:52:36;92913.03;;;-0.44;84.75
64402;BME280;50724;42.376;23.768;2023-01-31T16:55:36;92916.63;;;-0.46;84.83
64402;BME280;50724;42.376;23.768;2023-01-31T16:58:57;92916.44;;;-0.43;84.34
64402;BME280;50724;42.376;23.768;2023-01-31T17:05:27;92926.91;;;-0.46;84.16
64402;BME280;50724;42.376;23.768;2023-01-31T17:08:29;92921.56;;;-0.43;83.36
64402;BME280;50724;42.376;23.768;2023-01-31T17:11:29;92929.06;;;-0.40;83.25
64402;BME280;50724;42.376;23.768;2023-01-31T17:14:30;92931.00;;;-0.44;83.58
64402;BME280;50724;42.376;23.768;2023-01-31T17:17:33;92933.19;;;-0.38;82.88
64402;BME280;50724;42.376;23.768;2023-01-31T17:20:39;92935.22;;;-0.43;83.09
64402;BME280;50724;42.376;23.768;2023-01-31T17:23:40;92942.22;;;-0.45;82.60
64402;BME280;50724;42.376;23.768;2023-01-31T17:26:42;92953.41;;;-0.33;81.80
64402;BME280;50724;42.376;23.768;2023-01-31T17:29:43;92945.50;;;-0.43;82.95
64402;BME280;50724;42.376;23.768;2023-01-31T17:32:46;92950.03;;;-0.46;83.00
64402;BME280;50724;42.376;23.768;2023-01-31T17:35:47;92945.28;;;-0.40;82.29
64402;BME280;50724;42.376;23.768;2023-01-31T17:38:48;92948.41;;;-0.47;83.26
64402;BME280;50724;42.376;23.768;2023-01-31T17:41:48;92957.84;;;-0.48;83.19
64402;BME280;50724;42.376;23.768;2023-01-31T17:44:57;92951.88;;;-0.48;83.20
64402;BME280;50724;42.376;23.768;2023-01-31T17:47:58;92959.69;;;-0.50;83.06
64402;BME280;50724;42.376;23.768;2023-01-31T17:50:59;92969.16;;;-0.50;83.54
64402;BME280;50724;42.376;23.768;2023-01-31T17:53:59;92956.31;;;-0.50;83.25
64402;BME280;50724;42.376;23.768;2023-01-31T17:56:59;92966.47;;;-0.49;82.73
64402;BME280;50724;42.376;23.768;2023-01-31T18:00:00;92964.00;;;-0.50;83.30
64402;BME280;50724;42.376;23.768;2023-01-31T18:03:00;92962.88;;;-0.46;83.23
64402;BME280;50724;42.376;23.768;2023-01-31T18:06:05;92965.88;;;-0.52;82.76
64402;BME280;50724;42.376;23.768;2023-01-31T18:09:06;92970.06;;;-0.51;83.52